Skip Navigation Links Skip Navigation Links

Current Weather

San Francisco International, San Francisco

For information only: do not use for flight planning or navigation.
Latest weather
Observation time Saturday, September 22, 2018 7:56 AM PDT
Local time Saturday, September 22, 2018 8:58 AM PDT
Flight conditions Instrument Meteorological Conditions
Winds
Wind speed calm
Visibility 5 mi.
Present weather mist
Sky condition
Ceiling 500 ft. overcast
Cloud layer overcast 500 ft.
Temperature 56°F
Dewpoint 53°F
Altimeter 29.99 in.Hg
Pressure change last 3 hours-0.01 in.Hg
Pressure rising more quickly
Derived measurements
Relative humidity 90%
Density altitude -75 ft.
Sea-level pressure 29.99 in.Hg
Remarks
Automated weather observing station with precipitation discriminator.
METAR KSFO 221456Z 00000KT 5SM BR OVC005 13/12 A2999 RMK AO2 SLP155 T01330117 53005

Settings

Location code

InnerDrive.Weather 4.0.6770.0 Release CLR 4.0.30319.42000
Copyright ©2018 Inner Drive Technology. All rights reserved. Portions Copyright ©1986-2018 David Braverman.

Find weather

Site navigation


Skip Navigation Links

Place info

Page info

PayPal - The safer, easier way to pay online!

Return home.

Copyright ©2018 Inner Drive Technology. Purveyors of fine, hand-crafted computer software. Page printed 2018-09-22T15:58:13 UTC.